sensor_id;sensor_type;location;lat;lon;timestamp;P1;durP1;ratioP1;P2;durP2;ratioP2
32824;SDS011;51060;42.640;24.356;2023-04-24T00:01:40;13.60;;;9.60;;
32824;SDS011;51060;42.640;24.356;2023-04-24T00:04:07;13.37;;;11.13;;
32824;SDS011;51060;42.640;24.356;2023-04-24T00:06:36;15.50;;;11.17;;
32824;SDS011;51060;42.640;24.356;2023-04-24T00:09:05;14.07;;;11.43;;
32824;SDS011;51060;42.640;24.356;2023-04-24T00:11:30;13.60;;;11.17;;
32824;SDS011;51060;42.640;24.356;2023-04-24T00:13:56;16.43;;;11.17;;
32824;SDS011;51060;42.640;24.356;2023-04-24T00:16:22;14.23;;;11.03;;
32824;SDS011;51060;42.640;24.356;2023-04-24T00:18:48;13.47;;;11.20;;
32824;SDS011;51060;42.640;24.356;2023-04-24T00:21:14;13.23;;;11.07;;
32824;SDS011;51060;42.640;24.356;2023-04-24T00:23:43;13.60;;;10.20;;
32824;SDS011;51060;42.640;24.356;2023-04-24T00:26:09;10.90;;;9.80;;
32824;SDS011;51060;42.640;24.356;2023-04-24T00:28:34;12.87;;;10.83;;
32824;SDS011;51060;42.640;24.356;2023-04-24T00:31:00;17.17;;;13.50;;
32824;SDS011;51060;42.640;24.356;2023-04-24T00:33:25;18.27;;;14.00;;
32824;SDS011;51060;42.640;24.356;2023-04-24T00:35:51;17.30;;;14.20;;
32824;SDS011;51060;42.640;24.356;2023-04-24T00:38:17;16.37;;;14.07;;
32824;SDS011;51060;42.640;24.356;2023-04-24T00:40:42;18.10;;;13.90;;
32824;SDS011;51060;42.640;24.356;2023-04-24T00:43:08;15.33;;;12.37;;
32824;SDS011;51060;42.640;24.356;2023-04-24T00:45:33;16.40;;;13.00;;
32824;SDS011;51060;42.640;24.356;2023-04-24T00:47:59;22.77;;;14.03;;
32824;SDS011;51060;42.640;24.356;2023-04-24T00:50:25;17.50;;;13.23;;
32824;SDS011;51060;42.640;24.356;2023-04-24T00:52:51;14.30;;;11.30;;
32824;SDS011;51060;42.640;24.356;2023-04-24T00:55:17;14.17;;;10.73;;
32824;SDS011;51060;42.640;24.356;2023-04-24T00:57:46;16.53;;;12.43;;
32824;SDS011;51060;42.640;24.356;2023-04-24T01:00:12;16.60;;;12.40;;
32824;SDS011;51060;42.640;24.356;2023-04-24T01:02:39;16.20;;;11.60;;
32824;SDS011;51060;42.640;24.356;2023-04-24T01:05:09;18.20;;;11.50;;
32824;SDS011;51060;42.640;24.356;2023-04-24T01:07:34;14.67;;;11.87;;
32824;SDS011;51060;42.640;24.356;2023-04-24T01:10:01;14.07;;;11.50;;
32824;SDS011;51060;42.640;24.356;2023-04-24T01:12:28;14.83;;;11.67;;
32824;SDS011;51060;42.640;24.356;2023-04-24T01:14:54;12.93;;;11.43;;
32824;SDS011;51060;42.640;24.356;2023-04-24T01:17:20;14.03;;;12.33;;
32824;SDS011;51060;42.640;24.356;2023-04-24T01:19:46;13.73;;;11.90;;
32824;SDS011;51060;42.640;24.356;2023-04-24T01:22:14;13.17;;;10.97;;
32824;SDS011;51060;42.640;24.356;2023-04-24T01:24:41;14.73;;;10.70;;
32824;SDS011;51060;42.640;24.356;2023-04-24T01:27:08;13.27;;;10.87;;
32824;SDS011;51060;42.640;24.356;2023-04-24T01:29:35;15.87;;;11.33;;
32824;SDS011;51060;42.640;24.356;2023-04-24T01:32:01;15.67;;;11.80;;
32824;SDS011;51060;42.640;24.356;2023-04-24T01:34:28;15.27;;;11.67;;
32824;SDS011;51060;42.640;24.356;2023-04-24T01:36:55;15.37;;;11.63;;
32824;SDS011;51060;42.640;24.356;2023-04-24T01:39:21;13.00;;;11.07;;
32824;SDS011;51060;42.640;24.356;2023-04-24T01:41:52;11.70;;;10.23;;
32824;SDS011;51060;42.640;24.356;2023-04-24T01:44:18;13.43;;;10.73;;
32824;SDS011;51060;42.640;24.356;2023-04-24T01:46:44;13.37;;;11.07;;
32824;SDS011;51060;42.640;24.356;2023-04-24T01:49:10;15.87;;;11.40;;
32824;SDS011;51060;42.640;24.356;2023-04-24T01:51:36;15.27;;;11.80;;
32824;SDS011;51060;42.640;24.356;2023-04-24T01:54:02;17.30;;;11.53;;
32824;SDS011;51060;42.640;24.356;2023-04-24T01:56:30;14.63;;;10.80;;
32824;SDS011;51060;42.640;24.356;2023-04-24T01:58:58;12.13;;;10.47;;
32824;SDS011;51060;42.640;24.356;2023-04-24T02:01:25;10.83;;;9.73;;
32824;SDS011;51060;42.640;24.356;2023-04-24T02:03:51;11.60;;;9.87;;
32824;SDS011;51060;42.640;24.356;2023-04-24T02:06:16;12.47;;;10.27;;
32824;SDS011;51060;42.640;24.356;2023-04-24T02:08:42;16.97;;;13.37;;
32824;SDS011;51060;42.640;24.356;2023-04-24T02:11:10;26.50;;;17.37;;
32824;SDS011;51060;42.640;24.356;2023-04-24T02:13:36;23.73;;;16.93;;
32824;SDS011;51060;42.640;24.356;2023-04-24T02:16:02;22.03;;;16.63;;
32824;SDS011;51060;42.640;24.356;2023-04-24T02:18:27;16.90;;;14.60;;
32824;SDS011;51060;42.640;24.356;2023-04-24T02:20:53;15.23;;;13.27;;
32824;SDS011;51060;42.640;24.356;2023-04-24T02:23:19;14.20;;;12.53;;
32824;SDS011;51060;42.640;24.356;2023-04-24T02:25:44;20.00;;;15.20;;
32824;SDS011;51060;42.640;24.356;2023-04-24T02:28:10;16.37;;;13.53;;
32824;SDS011;51060;42.640;24.356;2023-04-24T02:30:36;15.83;;;13.27;;
32824;SDS011;51060;42.640;24.356;2023-04-24T02:33:01;17.73;;;14.17;;
32824;SDS011;51060;42.640;24.356;2023-04-24T02:35:28;16.70;;;14.40;;
32824;SDS011;51060;42.640;24.356;2023-04-24T02:37:54;18.50;;;14.90;;
32824;SDS011;51060;42.640;24.356;2023-04-24T02:40:19;17.97;;;14.27;;
32824;SDS011;51060;42.640;24.356;2023-04-24T02:42:45;17.37;;;14.27;;
32824;SDS011;51060;42.640;24.356;2023-04-24T02:45:10;17.67;;;14.27;;
32824;SDS011;51060;42.640;24.356;2023-04-24T02:47:36;18.37;;;14.33;;
32824;SDS011;51060;42.640;24.356;2023-04-24T02:50:02;15.83;;;13.17;;
32824;SDS011;51060;42.640;24.356;2023-04-24T02:52:28;16.80;;;13.07;;
32824;SDS011;51060;42.640;24.356;2023-04-24T02:54:54;18.00;;;13.30;;
32824;SDS011;51060;42.640;24.356;2023-04-24T02:57:19;22.60;;;15.63;;
32824;SDS011;51060;42.640;24.356;2023-04-24T02:59:45;20.13;;;14.67;;
32824;SDS011;51060;42.640;24.356;2023-04-24T03:02:10;15.57;;;12.27;;
32824;SDS011;51060;42.640;24.356;2023-04-24T03:04:36;28.47;;;19.17;;
32824;SDS011;51060;42.640;24.356;2023-04-24T03:07:01;24.00;;;17.30;;
32824;SDS011;51060;42.640;24.356;2023-04-24T03:09:27;41.10;;;25.23;;
32824;SDS011;51060;42.640;24.356;2023-04-24T03:11:53;48.43;;;31.07;;
32824;SDS011;51060;42.640;24.356;2023-04-24T03:14:18;38.33;;;25.67;;
32824;SDS011;51060;42.640;24.356;2023-04-24T03:16:44;50.60;;;27.77;;
32824;SDS011;51060;42.640;24.356;2023-04-24T03:19:09;38.07;;;24.97;;
32824;SDS011;51060;42.640;24.356;2023-04-24T03:21:35;36.27;;;22.37;;
32824;SDS011;51060;42.640;24.356;2023-04-24T03:24:05;32.43;;;21.10;;
32824;SDS011;51060;42.640;24.356;2023-04-24T03:26:37;32.70;;;20.97;;
32824;SDS011;51060;42.640;24.356;2023-04-24T03:29:02;30.17;;;19.87;;
32824;SDS011;51060;42.640;24.356;2023-04-24T03:31:28;27.67;;;18.03;;
32824;SDS011;51060;42.640;24.356;2023-04-24T03:33:54;19.73;;;13.60;;
32824;SDS011;51060;42.640;24.356;2023-04-24T03:36:19;17.77;;;12.63;;
32824;SDS011;51060;42.640;24.356;2023-04-24T03:38:45;23.37;;;15.13;;
32824;SDS011;51060;42.640;24.356;2023-04-24T03:41:11;21.73;;;15.27;;
32824;SDS011;51060;42.640;24.356;2023-04-24T03:43:37;34.50;;;23.10;;
32824;SDS011;51060;42.640;24.356;2023-04-24T03:46:03;37.77;;;27.47;;
32824;SDS011;51060;42.640;24.356;2023-04-24T03:48:28;40.33;;;30.43;;
32824;SDS011;51060;42.640;24.356;2023-04-24T03:50:54;44.80;;;32.50;;
32824;SDS011;51060;42.640;24.356;2023-04-24T03:53:20;45.03;;;30.50;;
32824;SDS011;51060;42.640;24.356;2023-04-24T03:55:45;42.10;;;31.67;;
32824;SDS011;51060;42.640;24.356;2023-04-24T03:58:11;38.00;;;30.13;;
32824;SDS011;51060;42.640;24.356;2023-04-24T04:00:39;37.77;;;28.73;;
32824;SDS011;51060;42.640;24.356;2023-04-24T04:03:05;44.50;;;32.13;;
32824;SDS011;51060;42.640;24.356;2023-04-24T04:05:31;45.63;;;31.67;;
32824;SDS011;51060;42.640;24.356;2023-04-24T04:07:57;41.93;;;31.07;;
32824;SDS011;51060;42.640;24.356;2023-04-24T04:10:25;47.77;;;34.50;;
32824;SDS011;51060;42.640;24.356;2023-04-24T04:12:50;46.30;;;33.83;;
32824;SDS011;51060;42.640;24.356;2023-04-24T04:15:16;44.30;;;31.83;;
32824;SDS011;51060;42.640;24.356;2023-04-24T04:17:42;39.63;;;30.87;;
32824;SDS011;51060;42.640;24.356;2023-04-24T04:20:07;37.83;;;28.60;;
32824;SDS011;51060;42.640;24.356;2023-04-24T04:22:36;39.07;;;30.77;;
32824;SDS011;51060;42.640;24.356;2023-04-24T04:25:02;44.27;;;33.17;;
32824;SDS011;51060;42.640;24.356;2023-04-24T04:27:28;42.90;;;32.50;;
32824;SDS011;51060;42.640;24.356;2023-04-24T04:29:57;56.10;;;38.93;;
32824;SDS011;51060;42.640;24.356;2023-04-24T04:32:26;45.90;;;35.37;;
32824;SDS011;51060;42.640;24.356;2023-04-24T04:34:52;42.83;;;34.33;;
32824;SDS011;51060;42.640;24.356;2023-04-24T04:37:18;44.63;;;34.77;;
32824;SDS011;51060;42.640;24.356;2023-04-24T04:39:44;37.47;;;31.33;;
32824;SDS011;51060;42.640;24.356;2023-04-24T04:42:09;36.53;;;30.93;;
32824;SDS011;51060;42.640;24.356;2023-04-24T04:44:35;45.80;;;35.03;;
32824;SDS011;51060;42.640;24.356;2023-04-24T04:47:01;67.90;;;43.90;;
32824;SDS011;51060;42.640;24.356;2023-04-24T04:49:31;55.03;;;40.53;;
32824;SDS011;51060;42.640;24.356;2023-04-24T04:51:57;45.47;;;37.70;;
32824;SDS011;51060;42.640;24.356;2023-04-24T04:54:22;36.07;;;28.47;;
32824;SDS011;51060;42.640;24.356;2023-04-24T04:56:51;31.20;;;25.80;;
32824;SDS011;51060;42.640;24.356;2023-04-24T04:59:17;40.30;;;32.53;;
32824;SDS011;51060;42.640;24.356;2023-04-24T05:01:42;41.30;;;31.40;;
32824;SDS011;51060;42.640;24.356;2023-04-24T05:04:08;30.03;;;21.37;;
32824;SDS011;51060;42.640;24.356;2023-04-24T05:06:33;28.10;;;21.50;;
32824;SDS011;51060;42.640;24.356;2023-04-24T05:08:59;32.47;;;22.00;;
32824;SDS011;51060;42.640;24.356;2023-04-24T05:11:25;19.07;;;14.93;;
32824;SDS011;51060;42.640;24.356;2023-04-24T05:13:50;23.37;;;16.77;;
32824;SDS011;51060;42.640;24.356;2023-04-24T05:16:16;26.40;;;19.53;;
32824;SDS011;51060;42.640;24.356;2023-04-24T05:18:41;35.20;;;25.33;;
32824;SDS011;51060;42.640;24.356;2023-04-24T05:21:07;28.40;;;21.10;;
32824;SDS011;51060;42.640;24.356;2023-04-24T05:23:32;23.93;;;20.97;;
32824;SDS011;51060;42.640;24.356;2023-04-24T05:25:58;23.17;;;20.70;;
32824;SDS011;51060;42.640;24.356;2023-04-24T05:28:23;30.20;;;22.27;;
32824;SDS011;51060;42.640;24.356;2023-04-24T05:30:53;34.00;;;24.90;;
32824;SDS011;51060;42.640;24.356;2023-04-24T05:33:21;31.30;;;23.77;;
32824;SDS011;51060;42.640;24.356;2023-04-24T05:35:47;31.00;;;23.20;;
32824;SDS011;51060;42.640;24.356;2023-04-24T05:38:13;32.80;;;23.23;;
32824;SDS011;51060;42.640;24.356;2023-04-24T05:40:42;31.07;;;21.90;;
32824;SDS011;51060;42.640;24.356;2023-04-24T05:43:08;25.97;;;19.67;;
32824;SDS011;51060;42.640;24.356;2023-04-24T05:45:33;26.07;;;17.60;;
32824;SDS011;51060;42.640;24.356;2023-04-24T05:48:01;18.27;;;15.33;;
32824;SDS011;51060;42.640;24.356;2023-04-24T05:50:27;27.47;;;22.30;;
32824;SDS011;51060;42.640;24.356;2023-04-24T05:52:53;36.87;;;29.23;;
32824;SDS011;51060;42.640;24.356;2023-04-24T05:55:18;24.77;;;19.83;;
32824;SDS011;51060;42.640;24.356;2023-04-24T05:57:44;25.83;;;19.57;;
32824;SDS011;51060;42.640;24.356;2023-04-24T06:00:11;38.53;;;28.93;;
32824;SDS011;51060;42.640;24.356;2023-04-24T06:02:40;36.00;;;30.63;;
32824;SDS011;51060;42.640;24.356;2023-04-24T06:05:05;37.40;;;29.60;;
32824;SDS011;51060;42.640;24.356;2023-04-24T06:07:31;32.63;;;29.17;;
32824;SDS011;51060;42.640;24.356;2023-04-24T06:09:57;31.27;;;27.90;;
32824;SDS011;51060;42.640;24.356;2023-04-24T06:12:22;30.20;;;25.23;;
32824;SDS011;51060;42.640;24.356;2023-04-24T06:14:48;29.33;;;23.80;;
32824;SDS011;51060;42.640;24.356;2023-04-24T06:17:16;26.57;;;23.67;;
32824;SDS011;51060;42.640;24.356;2023-04-24T06:19:41;33.30;;;28.47;;
32824;SDS011;51060;42.640;24.356;2023-04-24T06:22:07;36.27;;;31.90;;
32824;SDS011;51060;42.640;24.356;2023-04-24T06:24:33;40.73;;;34.67;;
32824;SDS011;51060;42.640;24.356;2023-04-24T06:26:59;41.83;;;35.47;;
32824;SDS011;51060;42.640;24.356;2023-04-24T06:29:26;44.40;;;36.63;;
32824;SDS011;51060;42.640;24.356;2023-04-24T06:31:52;50.97;;;41.57;;
32824;SDS011;51060;42.640;24.356;2023-04-24T06:34:18;54.07;;;42.77;;
32824;SDS011;51060;42.640;24.356;2023-04-24T06:36:44;48.60;;;41.73;;
32824;SDS011;51060;42.640;24.356;2023-04-24T06:39:09;50.13;;;39.67;;
32824;SDS011;51060;42.640;24.356;2023-04-24T06:41:35;46.63;;;37.55;;
32824;SDS011;51060;42.640;24.356;2023-04-24T06:44:01;49.07;;;37.77;;
32824;SDS011;51060;42.640;24.356;2023-04-24T06:46:26;50.80;;;40.87;;
32824;SDS011;51060;42.640;24.356;2023-04-24T06:48:53;58.42;;;49.38;;
32824;SDS011;51060;42.640;24.356;2023-04-24T06:51:22;56.20;;;46.55;;
32824;SDS011;51060;42.640;24.356;2023-04-24T06:53:52;55.10;;;47.13;;
32824;SDS011;51060;42.640;24.356;2023-04-24T06:56:18;59.80;;;46.90;;
32824;SDS011;51060;42.640;24.356;2023-04-24T06:58:44;50.03;;;40.75;;
32824;SDS011;51060;42.640;24.356;2023-04-24T07:01:10;52.07;;;40.03;;
32824;SDS011;51060;42.640;24.356;2023-04-24T07:03:36;54.72;;;43.15;;
32824;SDS011;51060;42.640;24.356;2023-04-24T07:06:01;51.42;;;42.45;;
32824;SDS011;51060;42.640;24.356;2023-04-24T07:08:28;52.72;;;41.88;;
32824;SDS011;51060;42.640;24.356;2023-04-24T07:10:55;54.70;;;40.63;;
32824;SDS011;51060;42.640;24.356;2023-04-24T07:13:22;49.97;;;37.17;;
32824;SDS011;51060;42.640;24.356;2023-04-24T07:15:48;35.50;;;27.10;;
32824;SDS011;51060;42.640;24.356;2023-04-24T07:18:16;37.05;;;27.65;;
32824;SDS011;51060;42.640;24.356;2023-04-24T07:20:42;11.02;;;8.65;;
32824;SDS011;51060;42.640;24.356;2023-04-24T07:23:07;11.88;;;8.73;;
32824;SDS011;51060;42.640;24.356;2023-04-24T07:25:33;9.57;;;6.35;;
32824;SDS011;51060;42.640;24.356;2023-04-24T07:27:59;7.88;;;6.97;;
32824;SDS011;51060;42.640;24.356;2023-04-24T07:30:24;11.15;;;6.93;;
32824;SDS011;51060;42.640;24.356;2023-04-24T07:32:50;6.43;;;5.80;;
32824;SDS011;51060;42.640;24.356;2023-04-24T07:35:15;8.85;;;6.60;;
32824;SDS011;51060;42.640;24.356;2023-04-24T07:37:41;7.60;;;6.82;;
32824;SDS011;51060;42.640;24.356;2023-04-24T07:40:11;7.07;;;5.78;;
32824;SDS011;51060;42.640;24.356;2023-04-24T07:42:40;5.38;;;4.57;;
32824;SDS011;51060;42.640;24.356;2023-04-24T07:45:06;6.75;;;5.38;;
32824;SDS011;51060;42.640;24.356;2023-04-24T07:47:32;6.47;;;4.75;;
32824;SDS011;51060;42.640;24.356;2023-04-24T07:49:58;8.38;;;6.90;;
32824;SDS011;51060;42.640;24.356;2023-04-24T07:52:24;6.88;;;5.53;;
32824;SDS011;51060;42.640;24.356;2023-04-24T07:54:52;6.95;;;4.93;;
32824;SDS011;51060;42.640;24.356;2023-04-24T07:57:23;7.53;;;5.65;;
32824;SDS011;51060;42.640;24.356;2023-04-24T07:59:50;6.38;;;5.68;;
32824;SDS011;51060;42.640;24.356;2023-04-24T08:02:16;5.43;;;4.70;;
32824;SDS011;51060;42.640;24.356;2023-04-24T08:04:41;7.10;;;5.50;;
32824;SDS011;51060;42.640;24.356;2023-04-24T08:07:07;8.13;;;5.50;;
32824;SDS011;51060;42.640;24.356;2023-04-24T08:09:33;6.55;;;5.95;;
32824;SDS011;51060;42.640;24.356;2023-04-24T08:11:59;5.40;;;4.75;;
32824;SDS011;51060;42.640;24.356;2023-04-24T08:14:24;5.80;;;5.15;;
32824;SDS011;51060;42.640;24.356;2023-04-24T08:16:50;5.95;;;5.45;;
32824;SDS011;51060;42.640;24.356;2023-04-24T08:19:17;5.30;;;4.80;;
32824;SDS011;51060;42.640;24.356;2023-04-24T08:21:43;6.13;;;4.60;;
32824;SDS011;51060;42.640;24.356;2023-04-24T08:24:08;6.72;;;5.45;;
32824;SDS011;51060;42.640;24.356;2023-04-24T08:26:34;6.68;;;5.32;;
32824;SDS011;51060;42.640;24.356;2023-04-24T08:28:59;7.25;;;4.85;;
32824;SDS011;51060;42.640;24.356;2023-04-24T08:31:27;7.95;;;5.05;;
32824;SDS011;51060;42.640;24.356;2023-04-24T08:33:53;6.80;;;4.95;;
32824;SDS011;51060;42.640;24.356;2023-04-24T08:36:18;6.70;;;5.22;;
32824;SDS011;51060;42.640;24.356;2023-04-24T08:38:44;8.00;;;6.38;;
32824;SDS011;51060;42.640;24.356;2023-04-24T08:41:11;6.60;;;5.95;;
32824;SDS011;51060;42.640;24.356;2023-04-24T08:43:39;5.15;;;4.57;;
32824;SDS011;51060;42.640;24.356;2023-04-24T08:46:06;6.53;;;5.13;;
32824;SDS011;51060;42.640;24.356;2023-04-24T08:48:31;5.95;;;4.70;;
32824;SDS011;51060;42.640;24.356;2023-04-24T08:50:57;5.35;;;4.60;;
32824;SDS011;51060;42.640;24.356;2023-04-24T08:53:24;4.95;;;4.45;;
32824;SDS011;51060;42.640;24.356;2023-04-24T08:55:50;5.10;;;4.65;;
32824;SDS011;51060;42.640;24.356;2023-04-24T08:58:17;4.45;;;3.97;;
32824;SDS011;51060;42.640;24.356;2023-04-24T09:00:45;4.85;;;4.35;;
32824;SDS011;51060;42.640;24.356;2023-04-24T09:03:15;7.45;;;5.30;;
32824;SDS011;51060;42.640;24.356;2023-04-24T09:05:42;6.50;;;5.25;;
32824;SDS011;51060;42.640;24.356;2023-04-24T09:08:10;7.63;;;5.68;;
32824;SDS011;51060;42.640;24.356;2023-04-24T09:10:38;5.80;;;4.78;;
32824;SDS011;51060;42.640;24.356;2023-04-24T09:13:04;10.48;;;6.57;;
32824;SDS011;51060;42.640;24.356;2023-04-24T09:15:33;6.82;;;5.30;;
32824;SDS011;51060;42.640;24.356;2023-04-24T09:18:01;5.60;;;4.95;;
32824;SDS011;51060;42.640;24.356;2023-04-24T09:20:27;6.30;;;4.88;;
32824;SDS011;51060;42.640;24.356;2023-04-24T09:22:58;7.00;;;5.72;;
32824;SDS011;51060;42.640;24.356;2023-04-24T09:25:33;7.70;;;5.53;;
32824;SDS011;51060;42.640;24.356;2023-04-24T09:28:03;5.88;;;4.75;;
32824;SDS011;51060;42.640;24.356;2023-04-24T09:30:31;7.72;;;5.80;;
32824;SDS011;51060;42.640;24.356;2023-04-24T09:35:41;9.75;;;5.72;;
32824;SDS011;51060;42.640;24.356;2023-04-24T09:38:08;9.48;;;8.23;;
32824;SDS011;51060;42.640;24.356;2023-04-24T09:40:34;7.18;;;6.07;;
32824;SDS011;51060;42.640;24.356;2023-04-24T09:43:00;8.15;;;6.75;;
32824;SDS011;51060;42.640;24.356;2023-04-24T09:45:28;9.32;;;6.95;;
32824;SDS011;51060;42.640;24.356;2023-04-24T09:47:54;10.88;;;6.88;;
32824;SDS011;51060;42.640;24.356;2023-04-24T09:50:20;9.50;;;8.27;;
32824;SDS011;51060;42.640;24.356;2023-04-24T09:52:47;8.18;;;6.43;;
32824;SDS011;51060;42.640;24.356;2023-04-24T09:55:21;7.18;;;6.15;;
32824;SDS011;51060;42.640;24.356;2023-04-24T09:57:53;7.93;;;5.22;;
32824;SDS011;51060;42.640;24.356;2023-04-24T10:00:24;8.68;;;6.47;;
32824;SDS011;51060;42.640;24.356;2023-04-24T10:02:54;7.70;;;6.22;;
32824;SDS011;51060;42.640;24.356;2023-04-24T10:05:27;6.95;;;5.15;;
32824;SDS011;51060;42.640;24.356;2023-04-24T10:08:07;6.10;;;5.13;;
32824;SDS011;51060;42.640;24.356;2023-04-24T10:10:34;6.07;;;4.93;;
32824;SDS011;51060;42.640;24.356;2023-04-24T10:13:03;5.90;;;5.30;;
32824;SDS011;51060;42.640;24.356;2023-04-24T10:15:29;6.93;;;6.20;;
32824;SDS011;51060;42.640;24.356;2023-04-24T10:17:55;7.93;;;5.32;;
32824;SDS011;51060;42.640;24.356;2023-04-24T10:20:24;6.40;;;5.05;;
32824;SDS011;51060;42.640;24.356;2023-04-24T10:22:52;7.93;;;5.53;;
32824;SDS011;51060;42.640;24.356;2023-04-24T10:25:21;8.27;;;6.50;;
32824;SDS011;51060;42.640;24.356;2023-04-24T10:27:49;8.15;;;5.72;;
32824;SDS011;51060;42.640;24.356;2023-04-24T10:30:17;6.65;;;5.60;;
32824;SDS011;51060;42.640;24.356;2023-04-24T10:32:43;9.18;;;6.43;;
32824;SDS011;51060;42.640;24.356;2023-04-24T10:35:09;8.15;;;5.80;;
32824;SDS011;51060;42.640;24.356;2023-04-24T10:37:37;10.82;;;5.43;;
32824;SDS011;51060;42.640;24.356;2023-04-24T10:40:25;5.88;;;5.03;;
32824;SDS011;51060;42.640;24.356;2023-04-24T10:42:52;8.45;;;6.40;;
32824;SDS011;51060;42.640;24.356;2023-04-24T10:45:22;5.63;;;5.13;;
32824;SDS011;51060;42.640;24.356;2023-04-24T10:53:14;10.38;;;6.97;;
32824;SDS011;51060;42.640;24.356;2023-04-24T10:55:43;9.43;;;7.68;;
32824;SDS011;51060;42.640;24.356;2023-04-24T10:58:12;7.78;;;5.25;;
32824;SDS011;51060;42.640;24.356;2023-04-24T11:00:40;5.72;;;4.35;;
32824;SDS011;51060;42.640;24.356;2023-04-24T11:03:26;9.10;;;7.75;;
32824;SDS011;51060;42.640;24.356;2023-04-24T11:05:56;8.35;;;5.60;;
32824;SDS011;51060;42.640;24.356;2023-04-24T11:08:29;5.63;;;5.10;;
32824;SDS011;51060;42.640;24.356;2023-04-24T11:13:25;9.15;;;6.38;;
32824;SDS011;51060;42.640;24.356;2023-04-24T11:18:41;8.52;;;7.45;;
32824;SDS011;51060;42.640;24.356;2023-04-24T11:21:16;9.63;;;7.22;;
32824;SDS011;51060;42.640;24.356;2023-04-24T11:23:42;8.50;;;6.57;;
32824;SDS011;51060;42.640;24.356;2023-04-24T11:26:18;9.90;;;6.97;;
32824;SDS011;51060;42.640;24.356;2023-04-24T11:28:48;7.78;;;6.70;;
32824;SDS011;51060;42.640;24.356;2023-04-24T11:34:09;9.15;;;7.75;;
32824;SDS011;51060;42.640;24.356;2023-04-24T11:36:36;9.52;;;6.47;;
32824;SDS011;51060;42.640;24.356;2023-04-24T11:39:02;6.18;;;5.43;;
32824;SDS011;51060;42.640;24.356;2023-04-24T11:52:30;12.95;;;11.57;;
32824;SDS011;51060;42.640;24.356;2023-04-24T11:54:56;11.88;;;10.10;;
32824;SDS011;51060;42.640;24.356;2023-04-24T11:57:22;11.40;;;9.35;;
32824;SDS011;51060;42.640;24.356;2023-04-24T11:59:51;13.23;;;9.40;;
32824;SDS011;51060;42.640;24.356;2023-04-24T12:02:23;13.18;;;8.43;;
32824;SDS011;51060;42.640;24.356;2023-04-24T12:04:50;11.65;;;9.05;;
32824;SDS011;51060;42.640;24.356;2023-04-24T12:07:16;8.65;;;7.25;;
32824;SDS011;51060;42.640;24.356;2023-04-24T12:09:45;7.05;;;6.30;;
32824;SDS011;51060;42.640;24.356;2023-04-24T12:12:12;8.93;;;5.85;;
32824;SDS011;51060;42.640;24.356;2023-04-24T12:14:47;8.05;;;5.97;;
32824;SDS011;51060;42.640;24.356;2023-04-24T12:17:26;9.15;;;7.85;;
32824;SDS011;51060;42.640;24.356;2023-04-24T12:20:03;9.77;;;7.32;;
32824;SDS011;51060;42.640;24.356;2023-04-24T12:22:49;12.50;;;8.15;;
32824;SDS011;51060;42.640;24.356;2023-04-24T12:25:16;11.43;;;7.45;;
32824;SDS011;51060;42.640;24.356;2023-04-24T12:27:43;7.28;;;6.13;;
32824;SDS011;51060;42.640;24.356;2023-04-24T12:30:11;8.38;;;7.00;;
32824;SDS011;51060;42.640;24.356;2023-04-24T12:32:42;8.82;;;7.03;;
32824;SDS011;51060;42.640;24.356;2023-04-24T12:35:09;9.18;;;7.35;;
32824;SDS011;51060;42.640;24.356;2023-04-24T12:37:34;11.25;;;10.05;;
32824;SDS011;51060;42.640;24.356;2023-04-24T12:40:10;10.63;;;7.63;;
32824;SDS011;51060;42.640;24.356;2023-04-24T12:42:44;12.32;;;10.52;;
32824;SDS011;51060;42.640;24.356;2023-04-24T12:45:10;12.52;;;8.52;;
32824;SDS011;51060;42.640;24.356;2023-04-24T12:47:37;9.85;;;7.95;;
32824;SDS011;51060;42.640;24.356;2023-04-24T12:50:03;11.70;;;9.30;;
32824;SDS011;51060;42.640;24.356;2023-04-24T12:52:29;11.00;;;9.23;;
32824;SDS011;51060;42.640;24.356;2023-04-24T12:54:56;10.52;;;7.20;;
32824;SDS011;51060;42.640;24.356;2023-04-24T12:57:23;10.50;;;8.13;;
32824;SDS011;51060;42.640;24.356;2023-04-24T12:59:49;8.80;;;7.93;;
32824;SDS011;51060;42.640;24.356;2023-04-24T13:02:16;12.13;;;9.45;;
32824;SDS011;51060;42.640;24.356;2023-04-24T13:04:45;10.90;;;8.68;;
32824;SDS011;51060;42.640;24.356;2023-04-24T13:07:12;11.52;;;8.35;;
32824;SDS011;51060;42.640;24.356;2023-04-24T13:09:39;14.32;;;11.70;;
32824;SDS011;51060;42.640;24.356;2023-04-24T13:12:04;12.57;;;9.15;;
32824;SDS011;51060;42.640;24.356;2023-04-24T13:14:33;10.48;;;8.73;;
32824;SDS011;51060;42.640;24.356;2023-04-24T13:16:58;10.85;;;8.90;;
32824;SDS011;51060;42.640;24.356;2023-04-24T13:19:24;10.32;;;9.07;;
32824;SDS011;51060;42.640;24.356;2023-04-24T13:21:51;9.23;;;7.93;;
32824;SDS011;51060;42.640;24.356;2023-04-24T13:24:17;9.13;;;8.20;;
32824;SDS011;51060;42.640;24.356;2023-04-24T13:26:43;9.55;;;7.55;;
32824;SDS011;51060;42.640;24.356;2023-04-24T13:29:08;10.35;;;9.35;;
32824;SDS011;51060;42.640;24.356;2023-04-24T13:31:34;8.45;;;7.55;;
32824;SDS011;51060;42.640;24.356;2023-04-24T13:34:00;16.02;;;13.35;;
32824;SDS011;51060;42.640;24.356;2023-04-24T13:36:28;16.70;;;13.63;;
32824;SDS011;51060;42.640;24.356;2023-04-24T13:38:54;45.33;;;33.83;;
32824;SDS011;51060;42.640;24.356;2023-04-24T13:41:19;31.52;;;22.58;;
32824;SDS011;51060;42.640;24.356;2023-04-24T13:43:45;77.55;;;41.78;;
32824;SDS011;51060;42.640;24.356;2023-04-24T13:46:10;47.83;;;27.35;;
32824;SDS011;51060;42.640;24.356;2023-04-24T13:48:36;30.70;;;20.83;;
32824;SDS011;51060;42.640;24.356;2023-04-24T13:51:02;45.78;;;27.40;;
32824;SDS011;51060;42.640;24.356;2023-04-24T13:53:27;18.98;;;14.68;;
32824;SDS011;51060;42.640;24.356;2023-04-24T13:55:53;17.42;;;12.98;;
32824;SDS011;51060;42.640;24.356;2023-04-24T13:58:18;16.15;;;11.25;;
32824;SDS011;51060;42.640;24.356;2023-04-24T14:00:44;15.88;;;12.45;;
32824;SDS011;51060;42.640;24.356;2023-04-24T14:03:10;22.88;;;15.10;;
32824;SDS011;51060;42.640;24.356;2023-04-24T14:05:36;10.90;;;9.80;;
32824;SDS011;51060;42.640;24.356;2023-04-24T14:08:01;12.80;;;11.27;;
32824;SDS011;51060;42.640;24.356;2023-04-24T14:10:27;20.45;;;15.88;;
32824;SDS011;51060;42.640;24.356;2023-04-24T14:12:53;15.00;;;13.15;;
32824;SDS011;51060;42.640;24.356;2023-04-24T14:15:19;10.48;;;9.40;;
32824;SDS011;51060;42.640;24.356;2023-04-24T14:17:44;14.82;;;12.70;;
32824;SDS011;51060;42.640;24.356;2023-04-24T14:20:11;14.63;;;12.10;;
32824;SDS011;51060;42.640;24.356;2023-04-24T14:22:37;14.60;;;11.95;;
32824;SDS011;51060;42.640;24.356;2023-04-24T14:25:03;19.02;;;16.17;;
32824;SDS011;51060;42.640;24.356;2023-04-24T14:27:30;15.35;;;13.27;;
32824;SDS011;51060;42.640;24.356;2023-04-24T14:29:57;11.98;;;10.77;;
32824;SDS011;51060;42.640;24.356;2023-04-24T14:32:22;13.15;;;11.70;;
32824;SDS011;51060;42.640;24.356;2023-04-24T14:34:48;11.80;;;10.43;;
32824;SDS011;51060;42.640;24.356;2023-04-24T14:37:13;19.00;;;17.20;;
32824;SDS011;51060;42.640;24.356;2023-04-24T14:39:39;21.77;;;16.83;;
32824;SDS011;51060;42.640;24.356;2023-04-24T14:42:05;18.90;;;16.05;;
32824;SDS011;51060;42.640;24.356;2023-04-24T14:44:31;16.63;;;14.25;;